Aktuální počasí v Česku a ve světě - METAR

Seznam meteostanic umístěných nejčasteji na letišti v ČR a ve světě

Vyhledat místa podle abecedy:
A B C D E F G H I J K L M N O P Q R S T U V W X Y Z

Filtrovat:

ID stanice:
a/nebo
Název místa (fulltext):
 
Místo (ID)Naposledy načteno 
Brno - Tuřany (Brno/Tu) 25.01.2021 13:00 UTC Zobrazit data
Místo: Brno - Tuřany
Teplota: 3 °C (pocitová: -4.3 °C)
Vítr: 4 m/s z(e) 340°
Počasí: skoro zataženo
Dohlednost: 40 km
Zákl. oblačnosti: 7/8 1470 m
Vlhkost: 70%
Červená - Opava (Cervena/uL) 25.01.2021 13:00 UTC Zobrazit data
Místo: Červená - Opava
Teplota: -1 °C (pocitová: -8.7 °C)
Vítr: 3 m/s z(e) 340°
Počasí: zataženo
Dohlednost: 9 km
Zákl. oblačnosti: 4/8 270 m;8/8 960 m
Vlhkost: 80%
České Budějovice (C.Budej/po) 25.01.2021 13:00 UTC Zobrazit data
Místo: České Budějovice
Teplota: 2 °C (pocitová: -3.3 °C)
Vítr: 2 m/s z(e) 280°
Počasí: oblačno
Dohlednost: 35 km
Zákl. oblačnosti: 3/8 5100 m
Vlhkost: 65%
Cheb (Cheb) 25.01.2021 13:00 UTC Zobrazit data
Místo: Cheb
Teplota: -1 °C (pocitová: -7.2 °C)
Vítr: 2 m/s z(e) 0°
Počasí: skoro zataženo
Dohlednost: 15 km
Zákl. oblačnosti: 7/8 330 m
Vlhkost: 80%
Chotusice - Čáslav (Caslav) 25.01.2021 13:00 UTC Zobrazit data
Místo: Chotusice - Čáslav
Teplota: 2 °C (pocitová: -4.7 °C)
Vítr: 3 m/s z(e) 230°
Počasí: skoro zataženo
Dohlednost: 20 km
Zákl. oblačnosti: 2/8 600 m;6/8 1410 m
Vlhkost: 75%
Churáňov (Churanov) 25.01.2021 13:00 UTC Zobrazit data
Místo: Churáňov
Teplota: -3 °C (pocitová: -9.8 °C)
Vítr: 2 m/s z(e) 220°
Počasí: zataženo
Dohlednost: 30 km
Zákl. oblačnosti: 1/8 420 m;7/8 720 m
Vlhkost: 80%
Doksany - Litoměřice (Doksany) 25.01.2021 13:00 UTC Zobrazit data
Místo: Doksany - Litoměřice
Teplota: 5 °C (pocitová: 0.5 °C)
Vítr: 2 m/s z(e) 310°
Počasí: skorojasno
Dohlednost: 25 km
Zákl. oblačnosti: 1/8 1500 m
Vlhkost: 70%
Dukovany (Dukovany) 25.01.2021 13:00 UTC Zobrazit data
Místo: Dukovany
Teplota: 2 °C (pocitová: -6.4 °C)
Vítr: 5 m/s z(e) 320°
Počasí: skoro zataženo
Dohlednost: 35 km
Zákl. oblačnosti: 7/8 1140 m
Vlhkost: 60%
Holešov (Holesov) 25.01.2021 13:00 UTC Zobrazit data
Místo: Holešov
Teplota: 2 °C (pocitová: -4.7 °C)
Vítr: 3 m/s z(e) 270°
Počasí: skoro zataženo
Dohlednost: 15 km
Zákl. oblačnosti: 7/8 1080 m
Vlhkost: 87%
Kadaň - Tušimice (Tusimice) 25.01.2021 13:00 UTC Zobrazit data
Místo: Kadaň - Tušimice
Teplota: 2 °C (pocitová: -5.6 °C)
Vítr: 4 m/s z(e) 250°
Počasí: skoro zataženo
Dohlednost: 35 km
Zákl. oblačnosti: 5/8 1290 m
Vlhkost: 60%
Karlovy Vary (K.Vary) 25.01.2021 13:00 UTC Zobrazit data
Místo: Karlovy Vary
Teplota: -2 °C (pocitová: -10 °C)
Vítr: 3 m/s z(e) 300°
Počasí: skoro zataženo
Dohlednost: 30 km
Zákl. oblačnosti: 2/8 120 m;4/8 990 m
Vlhkost: 80%
Kocelovice (Kocelovice) 25.01.2021 13:00 UTC Zobrazit data
Místo: Kocelovice
Teplota: 0 °C (pocitová: -7.3 °C)
Vítr: 3 m/s z(e) 300°
Počasí: skoro zataženo
Dohlednost: 30 km
Zákl. oblačnosti: 1/8 570 m;3/8 3000 m
Vlhkost: 75%
Kopisty (Kopisty) 25.01.2021 12:00 UTC Zobrazit data
Místo: Kopisty
Teplota: 3 °C (pocitová: -3.3 °C)
Vítr: 3 m/s z(e) 220°
Počasí: skoro zataženo
Dohlednost: 30 km
Zákl. oblačnosti: 6/8 1380 m
Vlhkost: 70%
Kostelní Myslová (K.Myslova) 25.01.2021 13:00 UTC Zobrazit data
Místo: Kostelní Myslová
Teplota: 1 °C (pocitová: -6 °C)
Vítr: 3 m/s z(e) 290°
Počasí: skoro zataženo
Dohlednost: 30 km
Zákl. oblačnosti: 1/8 750 m;4/8 6000 m
Vlhkost: 70%
Křešín - Kramolín (Kramolin) 25.01.2021 13:00 UTC Zobrazit data
Místo: Křešín - Kramolín
Teplota: 0 °C (pocitová: -5.9 °C)
Vítr: 2 m/s z(e) 330°
Počasí: skoro zataženo
Dohlednost: 30 km
Zákl. oblačnosti: 2/8 690 m;3/8 1200 m
Vlhkost: 75%
Kuchařovice - Znojmo (Kucharovic) 25.01.2021 13:00 UTC Zobrazit data
Místo: Kuchařovice - Znojmo
Teplota: 2 °C (pocitová: -5.6 °C)
Vítr: 4 m/s z(e) 320°
Počasí: skoro zataženo
Dohlednost: 70 km
Zákl. oblačnosti: 7/8 1500 m
Vlhkost: 75%
Liberec (Liberec) 25.01.2021 13:00 UTC Zobrazit data
Místo: Liberec
Teplota: 0 °C (pocitová: -5.9 °C)
Vítr: 2 m/s z(e) 300°
Počasí: skoro zataženo
Dohlednost: 22 km
Zákl. oblačnosti: 2/8 390 m;5/8 4800 m
Vlhkost: 75%
Luká (Luka) 25.01.2021 13:00 UTC Zobrazit data
Místo: Luká
Teplota: 0 °C (pocitová: -9.2 °C)
Vítr: 5 m/s z(e) 320°
Počasí: zataženo
Dohlednost: 35 km
Zákl. oblačnosti: 8/8 1110 m
Vlhkost: 80%
Lysá Hora (Lysa Hora) 25.01.2021 02:00 UTC Zobrazit data
Místo: Lysá Hora
Teplota: -7 °C (pocitová: -19 °C)
Vítr: 5 m/s z(e) 310°
Počasí: sněží
Dohlednost: 22 km
Zákl. oblačnosti: 4/8 90 m;7/8 510 m
Vlhkost: 93%
Milešovka (Milesovka) 25.01.2021 13:00 UTC Zobrazit data
Místo: Milešovka
Teplota: -1 °C (pocitová: -7.2 °C)
Vítr: 2 m/s z(e) 250°
Počasí: oblačno
Dohlednost: 45 km
Zákl. oblačnosti: 1/8 90 m
Vlhkost: 93%
Mošnov (Ostrava/Mo) 25.01.2021 13:00 UTC Zobrazit data
Místo: Mošnov
Teplota: 1 °C (pocitová: -3.1 °C)
Vítr: 1 m/s z(e) 0°
Počasí: zataženo
Dohlednost: 10 km
Zákl. oblačnosti: 2/8 450 m;8/8 1440 m
Vlhkost: 93%
Náměšť nad Oslavou (Namest n/O) 25.01.2021 13:00 UTC Zobrazit data
Místo: Náměšť nad Oslavou
Teplota: 1 °C (pocitová: -7 °C)
Vítr: 4 m/s z(e) 320°
Počasí: skoro zataženo
Dohlednost: 30 km
Zákl. oblačnosti: 3/8 1140 m;7/8 1350 m
Vlhkost: 60%
Pardubice (Pardubice) 25.01.2021 13:00 UTC Zobrazit data
Místo: Pardubice
Teplota: 3 °C (pocitová: -5 °C)
Vítr: 5 m/s z(e) 290°
Počasí: skoro zataženo
Dohlednost: 20 km
Zákl. oblačnosti: 4/8 630 m;6/8 1500 m
Vlhkost: 70%
Pec pod Sněžkou (Pec p.Snez) 25.01.2021 13:00 UTC Zobrazit data
Místo: Pec pod Sněžkou
Teplota: -2 °C (pocitová: -6.7 °C)
Vítr: 1 m/s z(e) 0°
Počasí: skoro zataženo
Dohlednost: 20 km
Zákl. oblačnosti: 5/8 750 m
Vlhkost: 80%
Plzeň město - Mikulka (Plzen/Miku) 25.01.2021 13:00 UTC Zobrazit data
Místo: Plzeň město - Mikulka
Teplota: 0 °C (pocitová: -5.9 °C)
Vítr: 2 m/s z(e) 270°
Počasí: skoro zataženo
Dohlednost: 40 km
Zákl. oblačnosti: 1/8 450 m;7/8 5400 m
Vlhkost: 87%
Polom (Polom) 25.01.2021 13:00 UTC Zobrazit data
Místo: Polom
Teplota: -1 °C (pocitová: -5.5 °C)
Vítr: 1 m/s z(e) 320°
Počasí: skoro zataženo
Dohlednost: 15 km
Zákl. oblačnosti: 7/8 630 m
Vlhkost: 80%
Praha - Karlov (Praha/Kar) 25.01.2021 13:00 UTC Zobrazit data
Místo: Praha - Karlov
Teplota: 4 °C (pocitová: -0.8 °C)
Vítr: 2 m/s z(e) 0°
Počasí: skoro zataženo
Dohlednost: 40 km
Zákl. oblačnosti: 2/8 930 m;6/8 7800 m
Vlhkost: 61%
Praha - Kbely (Praha/Kbe) 25.01.2021 13:00 UTC Zobrazit data
Místo: Praha - Kbely
Teplota: 3 °C (pocitová: -2.1 °C)
Vítr: 2 m/s z(e) 310°
Počasí: oblačno
Dohlednost: 25 km
Zákl. oblačnosti: 4/8 810 m;4/8 6000 m
Vlhkost: 70%
Praha - Libuš (Praha/Lib) 25.01.2021 13:00 UTC Zobrazit data
Místo: Praha - Libuš
Teplota: 3 °C (pocitová: -0.6 °C)
Vítr: 1 m/s z(e) 280°
Počasí: skoro zataženo
Dohlednost: 35 km
Zákl. oblačnosti: 3/8 900 m;3/8 6000 m
Vlhkost: 60%
Praha - Ruzyně (Praha/Ru) 25.01.2021 13:00 UTC Zobrazit data
Místo: Praha - Ruzyně
Teplota: 2 °C (pocitová: -1.8 °C)
Vítr: 1 m/s z(e) 270°
Počasí: skoro zataženo
Dohlednost: 40 km
Zákl. oblačnosti: 3/8 750 m;4/8 6000 m
Vlhkost: 70%
Přibyslav (Pribyslav) 25.01.2021 13:00 UTC Zobrazit data
Místo: Přibyslav
Teplota: 0 °C (pocitová: -8.4 °C)
Vítr: 4 m/s z(e) 310°
Počasí: skoro zataženo
Dohlednost: 30 km
Zákl. oblačnosti: 7/8 1410 m
Vlhkost: 80%
Přimda (Primda) 25.01.2021 13:00 UTC Zobrazit data
Místo: Přimda
Teplota: -2 °C (pocitová: -8.5 °C)
Vítr: 2 m/s z(e) 260°
Počasí: sněží
Dohlednost: 6 km
Zákl. oblačnosti: 4/8 180 m;7/8 1140 m
Vlhkost: 93%
Šerák (Serak) 25.01.2021 09:00 UTC Zobrazit data
Místo: Šerák
Teplota: -6 °C (pocitová: -16.6 °C)
Vítr: 4 m/s z(e) 340°
Počasí: skoro zataženo
Dohlednost: 900 m
Zákl. oblačnosti: N/A
Vlhkost: 93%
Svratouch (Svratouch) 25.01.2021 13:00 UTC Zobrazit data
Místo: Svratouch
Teplota: -1 °C (pocitová: -8.7 °C)
Vítr: 3 m/s z(e) 330°
Počasí: skoro zataženo
Dohlednost: 35 km
Zákl. oblačnosti: 2/8 390 m;7/8 930 m
Vlhkost: 75%
Temelín (Temelin) 25.01.2021 13:00 UTC Zobrazit data
Místo: Temelín
Teplota: 0 °C (pocitová: -4.3 °C)
Vítr: 1 m/s z(e) 240°
Počasí: skoro zataženo
Dohlednost: 40 km
Zákl. oblačnosti: 1/8 1500 m;5/8 5700 m
Vlhkost: 75%
Ústí nad Labem - Kočkov (Usti n/L) 25.01.2021 13:00 UTC Zobrazit data
Místo: Ústí nad Labem - Kočkov
Teplota: 1 °C (pocitová: -6 °C)
Vítr: 3 m/s z(e) 340°
Počasí: sněží
Dohlednost: 60 km
Zákl. oblačnosti: 5/8 600 m;5/8 1200 m
Vlhkost: 81%
Ústí nad Orlicí (Usti n/O) 25.01.2021 13:00 UTC Zobrazit data
Místo: Ústí nad Orlicí
Teplota: 1 °C (pocitová: -4.6 °C)
Vítr: 2 m/s z(e) 320°
Počasí: sněží
Dohlednost: 40 km
Zákl. oblačnosti: 3/8 630 m;4/8 1200 m
Vlhkost: 81%
Aalborg (EKYT) 25.01.2021 11:50 UTC Zobrazit METAR
EKYT 251150Z AUTO 02004KT 350V070 9999 FEW012/// 03/00 Q1000
Aarhus (EKAH) 25.01.2021 12:50 UTC Zobrazit METAR
EKAH 251250Z AUTO 28007KT 9999 FEW006/// OVC017/// 02/02 Q1000
Abu Dhabi (OMAA) 25.01.2021 13:00 UTC Zobrazit METAR
OMAA 251300Z 34011KT CAVOK 22/16 Q1018 NOSIG
Abuja (DNAA) 25.01.2021 13:00 UTC Zobrazit METAR
DNAA 251300Z 31005KT 8000 NSC 36/10 Q1010 NOSIG
Accra (DGAA) 25.01.2021 13:00 UTC Zobrazit METAR
DGAA 251300Z 23004KT 150V270 1500 HZ NSC 33/18 Q1009 NOSIG
Addis Abeba (HAAB) 25.01.2021 04:00 UTC Zobrazit METAR
HAAB 250400Z 08004KT 9999 FEW025 12/03 Q1027
Agana (PGUM) 25.01.2021 12:54 UTC Zobrazit METAR
PGUM 251254Z 06005KT 10SM CLR 25/22 A2987 RMK AO2 SLP107 T02500217
Ahe Island (NTHE) Zatím nenačteno  
Akureyri (BIAR) 25.01.2021 11:00 UTC Zobrazit METAR
BIAR 251100Z 18004KT 2500 SN VV006 M06/M07 Q1019 R01/490195
Almaty (UAAA) Zatím nenačteno  
Amman (OJAM) 25.01.2021 13:00 UTC Zobrazit METAR
OJAM 251300Z 00000KT 6000 NSC 16/M00 Q1020 NOSIG
Amsterdam (EHAM) 25.01.2021 10:55 UTC Zobrazit METAR
EHAM 251055Z 24006KT 210V270 9999 FEW040 04/01 Q1005 NOSIG
Antananarivo (FMMI) 25.01.2021 07:00 UTC Zobrazit METAR
FMMI 250700Z 23004KT 160V260 9999 FEW017 25/17 Q1019 NOSIG
1 2 3 ... 9 Další
Reklama

Počasí na Váš email

Emaily jsou bez reklamy a bez spamu



Odhlásit newsletter


Další české internetové stránky (nejen) o počasí najdete v katalogu TOPlist - weby o počasí nebo vyhledejte na internetu, co jste tu na 🌞 Slunečnu ⛅ zatím nenašli:
⭐ Přidat Slunečno.cz do oblíbených | 🏠 Nastavit Slunečno.cz jako HOMEPAGE

⬆️ Posunout stránku nahoru ⬆️
Reklama